createdAt,value
2018-09-03T00:00:50.110Z,99.99
2018-09-03T00:02:00.237Z,99.7
2018-09-03T00:03:10.096Z,99.13
2018-09-03T00:04:19.955Z,99.04
2018-09-03T00:05:30.097Z,99.6
2018-09-03T00:06:39.678Z,99.75
2018-09-03T00:07:49.255Z,99.99
2018-09-03T00:08:59.106Z,99.99
2018-09-03T00:10:09.014Z,99.99
2018-09-03T00:11:19.141Z,99.99
2018-09-03T00:12:28.986Z,99.99
2018-09-03T00:13:38.291Z,99.99
2018-09-03T00:14:48.144Z,99.99
2018-09-03T00:15:58.042Z,99.99
2018-09-03T00:17:08.170Z,99.99
2018-09-03T00:18:17.748Z,99.99
2018-09-03T00:19:27.880Z,99.99
2018-09-03T00:20:38.004Z,99.99
2018-09-03T00:21:47.848Z,99.99
2018-09-03T00:22:57.971Z,99.99
2018-09-03T00:24:07.820Z,99.99
2018-09-03T00:25:17.671Z,99.99
2018-09-03T00:26:27.549Z,99.99
2018-09-03T00:27:36.849Z,99.99
2018-09-03T00:28:46.974Z,99.99
2018-09-03T00:29:57.099Z,99.99
2018-09-03T00:31:06.953Z,99.99
2018-09-03T00:32:16.804Z,99.99
2018-09-03T00:33:26.714Z,99.99
2018-09-03T00:34:36.839Z,99.99
2018-09-03T00:35:46.416Z,99.99
2018-09-03T00:36:56.545Z,99.99
2018-09-03T00:38:06.670Z,99.99
2018-09-03T00:39:16.517Z,99.99
2018-09-03T00:40:26.644Z,99.99
2018-09-03T00:41:36.496Z,99.99
2018-09-03T00:42:46.349Z,99.99
2018-09-03T00:43:56.469Z,99.99
2018-09-03T00:45:06.655Z,99.99
2018-09-03T00:46:16.787Z,99.99
2018-09-03T00:47:26.636Z,99.99
2018-09-03T00:48:36.760Z,99.99
2018-09-03T00:49:46.888Z,99.99
2018-09-03T00:50:57.116Z,99.99
2018-09-03T00:52:07.239Z,99.99
2018-09-03T00:53:17.140Z,99.99
2018-09-03T00:54:27.275Z,99.99
2018-09-03T00:55:37.125Z,99.99
2018-09-03T00:56:47.025Z,99.99
2018-09-03T00:57:57.199Z,99.99
2018-09-03T00:59:07.322Z,99.99
2018-09-03T01:00:17.177Z,99.99
2018-09-03T01:01:27.302Z,99.99
2018-09-03T01:02:37.252Z,99.99
2018-09-03T01:03:47.387Z,99.99
2018-09-03T01:04:56.967Z,99.99
2018-09-03T01:06:06.266Z,99.99
2018-09-03T01:07:15.570Z,99.99
2018-09-03T01:08:25.794Z,99.99
2018-09-03T01:09:35.923Z,99.99
2018-09-03T01:10:46.059Z,99.99
2018-09-03T01:11:56.194Z,99.99
2018-09-03T01:13:06.049Z,99.99
2018-09-03T01:14:15.947Z,99.99
2018-09-03T01:15:25.800Z,99.99
2018-09-03T01:16:35.941Z,99.99
2018-09-03T01:17:45.794Z,99.99
2018-09-03T01:18:55.931Z,99.99
2018-09-03T01:20:06.117Z,99.99
2018-09-03T01:21:15.969Z,99.99
2018-09-03T01:22:26.092Z,99.99
2018-09-03T01:23:36.247Z,99.99
2018-09-03T01:24:46.374Z,99.99
2018-09-03T01:25:56.555Z,99.99
2018-09-03T01:27:06.410Z,99.99
2018-09-03T01:28:16.270Z,99.99
2018-09-03T01:29:26.484Z,99.99
2018-09-03T01:30:36.873Z,99.99
2018-09-03T01:31:47.061Z,99.99
2018-09-03T01:32:56.918Z,99.99
2018-09-03T01:34:07.046Z,99.99
2018-09-03T01:35:16.902Z,99.99
2018-09-03T01:36:27.028Z,99.99
2018-09-03T01:37:36.611Z,99.99
2018-09-03T01:38:46.738Z,99.99
2018-09-03T01:39:56.862Z,99.99
2018-09-03T01:41:07.003Z,99.99
2018-09-03T01:42:16.853Z,99.99
2018-09-03T01:43:27.026Z,99.99
2018-09-03T01:44:37.153Z,99.99
2018-09-03T01:45:46.746Z,99.99
2018-09-03T01:46:56.881Z,99.99
2018-09-03T01:48:07.013Z,99.99
2018-09-03T01:49:17.195Z,99.99
2018-09-03T01:50:27.334Z,99.99
2018-09-03T01:51:37.185Z,99.99
2018-09-03T01:52:47.354Z,99.99
2018-09-03T01:53:56.936Z,99.99
2018-09-03T01:55:07.061Z,99.99
2018-09-03T01:56:16.915Z,99.99
2018-09-03T01:57:27.041Z,99.99
2018-09-03T01:58:36.901Z,99.99
2018-09-03T01:59:47.037Z,99.99
2018-09-03T02:00:57.270Z,99.99
2018-09-03T02:02:07.402Z,99.99
2018-09-03T02:03:17.257Z,99.99
2018-09-03T02:04:27.378Z,99.99
2018-09-03T02:05:37.229Z,99.99
2018-09-03T02:06:47.138Z,99.99
2018-09-03T02:07:56.994Z,99.99
2018-09-03T02:09:07.126Z,99.99
2018-09-03T02:10:16.428Z,99.99
2018-09-03T02:11:26.274Z,99.99
2018-09-03T02:12:36.454Z,99.99
2018-09-03T02:13:46.586Z,99.99
2018-09-03T02:14:56.722Z,99.99
2018-09-03T02:16:06.849Z,99.99
2018-09-03T02:17:16.971Z,99.99
2018-09-03T02:18:26.923Z,99.99
2018-09-03T02:19:37.060Z,99.99
2018-09-03T02:20:46.916Z,99.99
2018-09-03T02:21:57.047Z,99.99
2018-09-03T02:23:06.908Z,99.99
2018-09-03T02:24:16.535Z,99.99
2018-09-03T02:25:26.660Z,99.99
2018-09-03T02:26:36.505Z,99.99
2018-09-03T02:27:46.374Z,99.99
2018-09-03T02:28:56.499Z,99.99
2018-09-03T02:30:06.137Z,99.99
2018-09-03T02:31:16.296Z,99.99
2018-09-03T02:32:26.440Z,99.99
2018-09-03T02:33:36.574Z,99.99
2018-09-03T02:34:46.154Z,99.99
2018-09-03T02:35:56.056Z,99.99
2018-09-03T02:37:05.914Z,99.99
2018-09-03T02:38:16.035Z,99.99
2018-09-03T02:39:25.888Z,99.99
2018-09-03T02:40:35.751Z,99.99
2018-09-03T02:41:45.925Z,99.99
2018-09-03T02:42:56.061Z,99.99
2018-09-03T02:44:05.911Z,99.99
2018-09-03T02:45:16.041Z,99.99
2018-09-03T02:46:26.173Z,99.99
2018-09-03T02:47:35.820Z,99.99
2018-09-03T02:48:45.959Z,99.99
2018-09-03T02:49:56.088Z,99.99
2018-09-03T02:51:05.940Z,99.99
2018-09-03T02:52:15.522Z,99.99
2018-09-03T02:53:25.372Z,99.99
2018-09-03T02:54:35.501Z,99.99
2018-09-03T02:55:45.629Z,99.99
2018-09-03T02:56:55.480Z,99.99
2018-09-03T02:58:05.610Z,99.99
2018-09-03T02:59:15.782Z,99.99
2018-09-03T03:00:25.913Z,99.99
2018-09-03T03:01:36.043Z,99.99
2018-09-03T03:02:45.896Z,99.99
2018-09-03T03:03:55.473Z,99.99
2018-09-03T03:05:04.779Z,99.99
2018-09-03T03:06:14.910Z,99.99
2018-09-03T03:07:25.031Z,99.99
2018-09-03T03:08:34.606Z,99.99
2018-09-03T03:09:44.471Z,99.99
2018-09-03T03:10:54.322Z,99.99
2018-09-03T03:12:03.636Z,99.99
2018-09-03T03:13:13.860Z,99.99
2018-09-03T03:14:23.801Z,99.99
2018-09-03T03:15:33.664Z,99.99
2018-09-03T03:16:43.569Z,99.99
2018-09-03T03:17:53.450Z,99.99
2018-09-03T03:19:03.581Z,99.99
2018-09-03T03:20:13.431Z,99.99
2018-09-03T03:21:23.291Z,99.99
2018-09-03T03:22:33.479Z,99.99
2018-09-03T03:23:43.331Z,99.99
2018-09-03T03:24:53.185Z,99.99
2018-09-03T03:26:03.067Z,99.99
2018-09-03T03:27:12.369Z,99.99
2018-09-03T03:28:22.221Z,99.99
2018-09-03T03:29:32.076Z,99.99
2018-09-03T03:30:42.206Z,99.99
2018-09-03T03:31:52.353Z,99.99
2018-09-03T03:33:02.515Z,99.99
2018-09-03T03:34:12.739Z,99.99
2018-09-03T03:35:22.872Z,99.99
2018-09-03T03:36:32.729Z,99.99
2018-09-03T03:37:42.584Z,99.99
2018-09-03T03:38:52.447Z,99.99
2018-09-03T03:40:02.296Z,99.99
2018-09-03T03:41:12.427Z,99.99
2018-09-03T03:42:22.557Z,99.99
2018-09-03T03:43:32.423Z,99.99
2018-09-03T03:44:42.553Z,99.99
2018-09-03T03:45:52.728Z,99.99
2018-09-03T03:47:02.311Z,99.99
2018-09-03T03:48:12.439Z,99.99
2018-09-03T03:49:22.562Z,99.99
2018-09-03T03:50:32.422Z,99.99
2018-09-03T03:51:42.051Z,99.99
2018-09-03T03:52:51.927Z,99.99
2018-09-03T03:54:01.782Z,99.99
2018-09-03T03:55:11.604Z,99.99
2018-09-03T03:56:21.177Z,99.99
2018-09-03T03:57:31.131Z,99.99
2018-09-03T03:58:41.265Z,99.99
2018-09-03T03:59:51.130Z,99.99
2018-09-03T04:01:01.260Z,99.99
2018-09-03T04:02:10.839Z,99.99
2018-09-03T04:03:20.750Z,99.99
2018-09-03T04:04:30.877Z,99.99
2018-09-03T04:05:40.733Z,99.99
2018-09-03T04:06:50.859Z,99.99
2018-09-03T04:08:01.002Z,99.99
2018-09-03T04:09:10.902Z,99.99
2018-09-03T04:10:20.768Z,99.99
2018-09-03T04:11:30.896Z,99.99
2018-09-03T04:12:41.028Z,99.99
2018-09-03T04:13:51.163Z,99.99
2018-09-03T04:15:01.016Z,99.99
2018-09-03T04:16:11.210Z,99.99
2018-09-03T04:17:21.348Z,99.99
2018-09-03T04:18:31.471Z,99.99
2018-09-03T04:19:41.615Z,99.99
2018-09-03T04:20:51.792Z,99.99
2018-09-03T04:22:01.929Z,99.99
2018-09-03T04:23:12.043Z,99.99
2018-09-03T04:24:23.062Z,99.99
2018-09-03T04:25:33.204Z,99.99
2018-09-03T04:26:42.789Z,99.99
2018-09-03T04:27:52.643Z,99.99
2018-09-03T04:29:02.496Z,99.99
2018-09-03T04:30:12.077Z,99.99
2018-09-03T04:31:21.931Z,99.99
2018-09-03T04:32:31.837Z,99.99
2018-09-03T04:33:41.968Z,99.99
2018-09-03T04:34:52.094Z,99.99
2018-09-03T04:36:01.946Z,99.99
2018-09-03T04:37:11.809Z,99.99
2018-09-03T04:38:21.769Z,99.99
2018-09-03T04:39:31.077Z,99.99
2018-09-03T04:40:40.936Z,99.99
2018-09-03T04:41:50.792Z,99.99
2018-09-03T04:43:00.932Z,99.99
2018-09-03T04:44:11.107Z,99.99
2018-09-03T04:45:20.968Z,99.99
2018-09-03T04:46:31.125Z,99.99
2018-09-03T04:47:40.980Z,99.99
2018-09-03T04:48:50.839Z,99.99
2018-09-03T04:50:00.472Z,99.99
2018-09-03T04:51:10.328Z,99.99
2018-09-03T04:52:20.461Z,99.99
2018-09-03T04:53:30.038Z,99.99
2018-09-03T04:54:39.774Z,99.99
2018-09-03T04:55:50.031Z,99.99
2018-09-03T04:57:00.159Z,99.99
2018-09-03T04:58:10.290Z,99.99
2018-09-03T04:59:20.461Z,99.99
2018-09-03T05:00:30.643Z,99.99
2018-09-03T05:01:40.923Z,99.99
2018-09-03T05:02:51.140Z,99.99
2018-09-03T05:04:00.734Z,99.99
2018-09-03T05:05:10.325Z,99.99
2018-09-03T05:06:20.526Z,99.99
2018-09-03T05:07:30.158Z,99.99
2018-09-03T05:08:40.284Z,99.99
2018-09-03T05:09:49.868Z,99.99
2018-09-03T05:10:59.997Z,99.99
2018-09-03T05:12:09.855Z,99.99
2018-09-03T05:13:19.762Z,99.99
2018-09-03T05:14:29.616Z,99.99
2018-09-03T05:15:39.465Z,99.99
2018-09-03T05:16:49.049Z,99.99
2018-09-03T05:17:58.907Z,99.99
2018-09-03T05:19:08.824Z,99.99
2018-09-03T05:20:18.953Z,99.99
2018-09-03T05:21:28.803Z,99.99
2018-09-03T05:22:38.657Z,99.99
2018-09-03T05:23:48.786Z,99.99
2018-09-03T05:24:58.960Z,99.99
2018-09-03T05:26:08.536Z,99.99
2018-09-03T05:27:18.401Z,99.99
2018-09-03T05:28:27.980Z,99.99
2018-09-03T05:29:38.108Z,99.99
2018-09-03T05:30:48.061Z,99.99
2018-09-03T05:31:57.946Z,99.99
2018-09-03T05:33:08.083Z,99.99
2018-09-03T05:34:17.385Z,99.99
2018-09-03T05:35:27.528Z,99.99
2018-09-03T05:36:37.162Z,99.99
2018-09-03T05:37:46.741Z,99.99
2018-09-03T05:38:56.594Z,99.99
2018-09-03T05:40:06.451Z,99.99
2018-09-03T05:41:16.590Z,99.99
2018-09-03T05:42:26.766Z,99.99
2018-09-03T05:43:37.267Z,99.99
2018-09-03T05:44:47.757Z,99.99
2018-09-03T05:45:57.605Z,99.99
2018-09-03T05:47:07.458Z,99.99
2018-09-03T05:48:17.362Z,99.99
2018-09-03T05:49:27.215Z,99.99
2018-09-03T05:50:37.479Z,99.99
2018-09-03T05:51:48.023Z,99.99
2018-09-03T05:52:57.599Z,99.99
2018-09-03T05:54:07.506Z,99.99
2018-09-03T05:55:17.690Z,99.99
2018-09-03T05:56:27.546Z,99.99
2018-09-03T05:57:37.396Z,99.99
2018-09-03T05:58:47.521Z,99.99
2018-09-03T05:59:57.418Z,99.99
2018-09-03T06:01:07.552Z,99.99
2018-09-03T06:02:17.415Z,99.99
2018-09-03T06:03:27.000Z,99.99
2018-09-03T06:04:36.851Z,99.99
2018-09-03T06:05:47.209Z,99.99
2018-09-03T06:06:56.783Z,99.99
2018-09-03T06:08:06.917Z,99.99
2018-09-03T06:09:16.766Z,99.99
2018-09-03T06:10:26.633Z,99.99
2018-09-03T06:11:36.768Z,99.99
2018-09-03T06:12:46.646Z,99.99
2018-09-03T06:13:55.661Z,99.99
2018-09-03T06:15:05.519Z,99.99
2018-09-03T06:16:15.368Z,99.99
2018-09-03T06:17:25.032Z,99.99
2018-09-03T06:18:34.611Z,99.99
2018-09-03T06:19:44.525Z,99.99
2018-09-03T06:20:54.392Z,99.99
2018-09-03T06:22:03.967Z,99.99
2018-09-03T06:23:13.871Z,99.99
2018-09-03T06:24:24.002Z,99.99
2018-09-03T06:25:34.129Z,99.99
2018-09-03T06:26:44.040Z,99.99
2018-09-03T06:27:54.036Z,99.99
2018-09-03T06:29:03.940Z,99.99
2018-09-03T06:30:14.067Z,99.99
2018-09-03T06:31:23.951Z,99.99
2018-09-03T06:32:33.804Z,99.99
2018-09-03T06:33:43.667Z,99.99
2018-09-03T06:34:53.849Z,99.99
2018-09-03T06:36:03.520Z,99.99
2018-09-03T06:37:13.392Z,99.99
2018-09-03T06:38:23.668Z,99.99
2018-09-03T06:39:33.875Z,99.99
2018-09-03T06:40:44.347Z,99.99
2018-09-03T06:41:54.408Z,99.99
2018-09-03T06:43:04.261Z,99.99
2018-09-03T06:44:14.385Z,99.99
2018-09-03T06:45:24.242Z,99.99
2018-09-03T06:46:34.419Z,99.99
2018-09-03T06:47:44.548Z,99.99
2018-09-03T06:48:54.679Z,99.99
2018-09-03T06:50:04.257Z,99.99
2018-09-03T06:51:14.386Z,99.99
2018-09-03T06:52:24.292Z,99.99
2018-09-03T06:53:34.534Z,99.99
2018-09-03T06:54:44.464Z,99.99
2018-09-03T06:55:54.589Z,99.99
2018-09-03T06:57:04.171Z,99.99
2018-09-03T06:58:13.807Z,99.99
2018-09-03T06:59:23.658Z,99.99
2018-09-03T07:00:33.267Z,98.9
2018-09-03T07:01:43.402Z,99.09
2018-09-03T07:02:52.976Z,97.94
2018-09-03T07:04:03.162Z,98.33
2018-09-03T07:05:13.014Z,97.94
2018-09-03T07:06:23.138Z,97.56
2018-09-03T07:07:32.990Z,96.22
2018-09-03T07:08:43.119Z,97.56
2018-09-03T07:09:53.303Z,97.37
2018-09-03T07:11:02.885Z,97.56
2018-09-03T07:12:13.027Z,97.75
2018-09-03T07:13:23.153Z,96.13
2018-09-03T07:14:33.287Z,96.42
2018-09-03T07:15:43.242Z,96.99
2018-09-03T07:16:53.369Z,96.51
2018-09-03T07:18:03.505Z,96.13
2018-09-03T07:19:13.635Z,96.61
2018-09-03T07:20:23.759Z,96.51
2018-09-03T07:21:33.937Z,96.22
2018-09-03T07:22:44.064Z,94.89
2018-09-03T07:23:53.643Z,94.36
2018-09-03T07:25:03.773Z,95.17
2018-09-03T07:26:13.914Z,95.84
2018-09-03T07:27:23.817Z,95.27
2018-09-03T07:28:33.943Z,94.26
2018-09-03T07:29:43.900Z,95.03
2018-09-03T07:30:54.033Z,93.79
2018-09-03T07:32:04.158Z,93.69
2018-09-03T07:33:14.330Z,94.17
2018-09-03T07:34:23.911Z,93.4
2018-09-03T07:35:34.089Z,93.4
2018-09-03T07:36:44.089Z,92.45
2018-09-03T07:37:53.942Z,92.54
2018-09-03T07:39:04.126Z,92.25
2018-09-03T07:40:13.705Z,92.83
2018-09-03T07:41:23.829Z,92.64
2018-09-03T07:42:33.406Z,93.31
2018-09-03T07:43:43.541Z,92.45
2018-09-03T07:44:53.724Z,93.02
2018-09-03T07:46:03.850Z,92.07
2018-09-03T07:47:13.702Z,91.59
2018-09-03T07:48:23.826Z,91.97
2018-09-03T07:49:33.731Z,90.77
2018-09-03T07:50:43.588Z,90.87
2018-09-03T07:51:53.779Z,89.91
2018-09-03T07:53:03.361Z,89.72
2018-09-03T07:54:13.216Z,89.91
2018-09-03T07:55:23.342Z,88.67
2018-09-03T07:56:33.200Z,88.57
2018-09-03T07:57:43.332Z,88.48
2018-09-03T07:58:53.479Z,88
2018-09-03T08:00:03.662Z,86.57
2018-09-03T08:01:13.638Z,86.66
2018-09-03T08:02:23.928Z,87.52
2018-09-03T08:03:33.782Z,87.33
2018-09-03T08:04:43.912Z,86.94
2018-09-03T08:05:54.044Z,88.48
2018-09-03T08:07:03.626Z,89.81
2018-09-03T08:08:13.484Z,91.16
2018-09-03T08:09:23.620Z,91.97
2018-09-03T08:10:33.754Z,92.49
2018-09-03T08:11:43.333Z,93.59
2018-09-03T08:12:52.975Z,93.5
2018-09-03T08:14:03.400Z,93.3
2018-09-03T08:15:12.978Z,93.4
2018-09-03T08:16:22.828Z,93.02
2018-09-03T08:17:32.675Z,93.21
2018-09-03T08:18:42.542Z,92.73
2018-09-03T08:19:52.754Z,91.97
2018-09-03T08:21:02.383Z,92.35
2018-09-03T08:22:11.963Z,92.25
2018-09-03T08:23:22.084Z,92.25
2018-09-03T08:24:31.389Z,92.73
2018-09-03T08:25:41.239Z,91.77
2018-09-03T08:26:51.380Z,91.58
2018-09-03T08:28:01.516Z,91.87
2018-09-03T08:29:11.094Z,91.25
2018-09-03T08:30:21.063Z,90.82
2018-09-03T08:31:30.883Z,91.49
2018-09-03T08:32:40.737Z,91.25
2018-09-03T08:33:50.043Z,91.53
2018-09-03T08:34:59.899Z,91.72
2018-09-03T08:36:09.754Z,91.15
2018-09-03T08:37:19.883Z,90.96
2018-09-03T08:38:29.733Z,90.77
2018-09-03T08:39:39.874Z,90.09
2018-09-03T08:40:49.786Z,89.81
2018-09-03T08:41:59.635Z,90.09
2018-09-03T08:43:08.664Z,89.81
2018-09-03T08:44:18.519Z,89.14
2018-09-03T08:45:28.374Z,88.76
2018-09-03T08:46:38.510Z,88.85
2018-09-03T08:47:48.644Z,88.76
2018-09-03T08:48:58.778Z,88.76
2018-09-03T08:50:08.629Z,88.09
2018-09-03T08:51:18.580Z,88.28
2018-09-03T08:52:28.719Z,88.03
2018-09-03T08:53:38.577Z,87.9
2018-09-03T08:54:48.706Z,88.8
2018-09-03T08:55:58.838Z,88.03
2018-09-03T08:57:08.424Z,87.55
2018-09-03T08:58:18.554Z,87.41
2018-09-03T08:59:28.409Z,86.69
2018-09-03T09:00:38.261Z,86.79
2018-09-03T09:01:48.118Z,85.83
2018-09-03T09:02:58.256Z,86.31
2018-09-03T09:04:07.836Z,86.98
2018-09-03T09:05:17.970Z,86.6
2018-09-03T09:06:27.875Z,85.93
2018-09-03T09:07:37.733Z,85.64
2018-09-03T09:08:47.314Z,86.31
2018-09-03T09:09:57.439Z,85.93
2018-09-03T09:11:07.576Z,85.64
2018-09-03T09:12:17.709Z,85.54
2018-09-03T09:13:27.838Z,84.97
2018-09-03T09:14:37.976Z,84.97
2018-09-03T09:15:48.120Z,85.54
2018-09-03T09:16:57.698Z,85.64
2018-09-03T09:18:07.555Z,84.88
2018-09-03T09:19:17.684Z,85.06
2018-09-03T09:20:26.990Z,84.58
2018-09-03T09:21:37.118Z,83.92
2018-09-03T09:22:46.972Z,84.39
2018-09-03T09:23:57.103Z,84.39
2018-09-03T09:25:07.395Z,83.92
2018-09-03T09:26:17.679Z,84.88
2018-09-03T09:27:27.813Z,85.16
2018-09-03T09:28:37.949Z,85.35
2018-09-03T09:29:47.254Z,85.35
2018-09-03T09:30:57.389Z,84.88
2018-09-03T09:32:07.526Z,84.01
2018-09-03T09:33:17.660Z,83.92
2018-09-03T09:34:27.243Z,83.44
2018-09-03T09:35:36.817Z,83.34
2018-09-03T09:36:47.134Z,83.25
2018-09-03T09:37:56.567Z,83.15
2018-09-03T09:39:06.700Z,83.15
2018-09-03T09:40:16.556Z,82.86
2018-09-03T09:41:26.688Z,83.25
2018-09-03T09:42:36.546Z,83.25
2018-09-03T09:43:46.406Z,83.25
2018-09-03T09:44:56.260Z,83.15
2018-09-03T09:46:06.403Z,82.76
2018-09-03T09:47:16.264Z,82.96
2018-09-03T09:48:26.398Z,83.05
2018-09-03T09:49:36.274Z,83.44
2018-09-03T09:50:46.409Z,83.34
2018-09-03T09:51:56.551Z,83.15
2018-09-03T09:53:06.407Z,84.05
2018-09-03T09:54:15.986Z,83.58
2018-09-03T09:55:26.113Z,84.11
2018-09-03T09:56:36.242Z,83.09
2018-09-03T09:57:46.378Z,83.09
2018-09-03T09:58:56.235Z,82.23
2018-09-03T10:00:06.093Z,82.32
2018-09-03T10:01:15.406Z,82.04
2018-09-03T10:02:25.536Z,81.85
2018-09-03T10:03:35.116Z,82.23
2018-09-03T10:04:44.965Z,82.23
2018-09-03T10:05:54.829Z,82.23
2018-09-03T10:07:04.154Z,80.79
2018-09-03T10:08:13.457Z,81.85
2018-09-03T10:09:23.580Z,82.32
2018-09-03T10:10:33.163Z,82.71
2018-09-03T10:11:43.028Z,82.04
2018-09-03T10:12:53.159Z,81.46
2018-09-03T10:14:02.736Z,81.66
2018-09-03T10:15:12.869Z,82.18
2018-09-03T10:16:22.726Z,81.08
2018-09-03T10:17:32.585Z,81.7
2018-09-03T10:18:42.717Z,81.12
2018-09-03T10:19:52.297Z,80.83
2018-09-03T10:21:02.409Z,80.26
2018-09-03T10:22:12.414Z,80.83
2018-09-03T10:23:21.993Z,80.55
2018-09-03T10:24:31.027Z,79.68
2018-09-03T10:25:40.890Z,79.01
2018-09-03T10:26:51.020Z,79.88
2018-09-03T10:28:00.882Z,79.11
2018-09-03T10:29:10.733Z,79.68
2018-09-03T10:30:20.862Z,79.68
2018-09-03T10:31:30.444Z,79.49
2018-09-03T10:32:40.604Z,79.39
2018-09-03T10:33:50.779Z,79.14
2018-09-03T10:35:00.358Z,78.92
2018-09-03T10:36:10.489Z,78.28
2018-09-03T10:37:20.067Z,78.96
2018-09-03T10:38:29.933Z,78.86
2018-09-03T10:39:40.073Z,78.86
2018-09-03T10:40:49.930Z,77.51
2018-09-03T10:41:59.792Z,78.09
2018-09-03T10:43:09.920Z,77.9
2018-09-03T10:44:19.779Z,78.09
2018-09-03T10:45:29.363Z,77.42
2018-09-03T10:46:39.493Z,77.51
2018-09-03T10:47:49.351Z,77.71
2018-09-03T10:48:59.481Z,77.51
2018-09-03T10:50:09.608Z,77.61
2018-09-03T10:51:19.750Z,77.26
2018-09-03T10:52:29.337Z,77.17
2018-09-03T10:53:39.468Z,77.36
2018-09-03T10:54:49.053Z,77.65
2018-09-03T10:55:58.910Z,76.69
2018-09-03T10:57:08.542Z,76.98
2018-09-03T10:58:18.402Z,77.65
2018-09-03T10:59:28.535Z,76.02
2018-09-03T11:00:38.667Z,75.06
2018-09-03T11:01:48.796Z,76.4
2018-09-03T11:02:58.661Z,75.45
2018-09-03T11:04:08.531Z,75.63
2018-09-03T11:05:18.800Z,74.62
2018-09-03T11:06:28.932Z,74.81
2018-09-03T11:07:38.794Z,74.52
2018-09-03T11:08:48.923Z,73.56
2018-09-03T11:09:58.775Z,73.27
2018-09-03T11:11:08.363Z,73.66
2018-09-03T11:12:18.219Z,73.31
2018-09-03T11:13:28.352Z,72.64
2018-09-03T11:14:38.480Z,72.54
2018-09-03T11:15:48.605Z,71.61
2018-09-03T11:16:58.456Z,70.15
2018-09-03T11:18:08.311Z,69.41
2018-09-03T11:19:18.175Z,68
2018-09-03T11:20:27.488Z,67.16
2018-09-03T11:21:38.144Z,66.04
2018-09-03T11:22:48.923Z,64.95
2018-09-03T11:23:58.567Z,63.82
2018-09-03T11:25:08.769Z,62.6
2018-09-03T11:26:18.042Z,61.57
2018-09-03T11:27:28.175Z,60.27
2018-09-03T11:28:38.106Z,58.85
2018-09-03T11:29:48.189Z,58.49
2018-09-03T11:30:58.061Z,57.07
2018-09-03T11:32:08.312Z,55.93
2018-09-03T11:33:18.452Z,54.7
2018-09-03T11:34:28.314Z,54.31
2018-09-03T11:35:37.914Z,53.17
2018-09-03T11:36:47.862Z,52.81
2018-09-03T11:37:57.725Z,51.18
2018-09-03T11:39:07.591Z,50.43
2018-09-03T11:40:17.736Z,49.29
2018-09-03T11:41:27.606Z,49.61
2018-09-03T11:42:37.470Z,48.83
2018-09-03T11:43:47.661Z,48.75
2018-09-03T11:44:57.803Z,47.32
2018-09-03T11:46:07.397Z,46.44
2018-09-03T11:47:17.141Z,46.95
2018-09-03T11:48:27.014Z,44.93
2018-09-03T11:49:36.658Z,44.54
2018-09-03T11:50:46.818Z,44.37
2018-09-03T11:51:56.961Z,43.8
2018-09-03T11:53:06.566Z,42.83
2018-09-03T11:54:16.711Z,43.92
2018-09-03T11:55:26.368Z,42.77
2018-09-03T11:56:35.987Z,40.63
2018-09-03T11:57:46.129Z,40.23
2018-09-03T11:58:56.277Z,41.02
2018-09-03T12:00:05.873Z,41.23
2018-09-03T12:01:15.472Z,38.79
2018-09-03T12:02:24.790Z,40.56
2018-09-03T12:03:34.672Z,39.39
2018-09-03T12:04:44.818Z,39.49
2018-09-03T12:05:54.682Z,39.02
2018-09-03T12:07:04.837Z,38.55
2018-09-03T12:08:14.704Z,37.96
2018-09-03T12:09:24.292Z,37.18
2018-09-03T12:10:33.889Z,37.59
2018-09-03T12:11:43.756Z,34.75
2018-09-03T12:12:53.732Z,37.63
2018-09-03T12:14:03.880Z,37.95
2018-09-03T12:15:14.020Z,40.17
2018-09-03T12:16:24.170Z,39.24
2018-09-03T12:17:34.312Z,39.53
2018-09-03T12:18:44.507Z,41.14
2018-09-03T12:19:54.660Z,42.97
2018-09-03T12:21:04.582Z,41.94
2018-09-03T12:22:15.113Z,41.38
2018-09-03T12:23:24.980Z,39.43
2018-09-03T12:24:34.906Z,40
2018-09-03T12:25:45.054Z,41.46
2018-09-03T12:26:55.204Z,41.38
2018-09-03T12:28:04.795Z,41.3
2018-09-03T12:29:14.664Z,41.25
2018-09-03T12:30:24.868Z,39.7
2018-09-03T12:31:35.037Z,37.57
2018-09-03T12:32:45.216Z,39.41
2018-09-03T12:33:55.085Z,36.99
2018-09-03T12:35:05.235Z,39.41
2018-09-03T12:36:15.158Z,39.23
2018-09-03T12:37:25.306Z,38.96
2018-09-03T12:38:34.903Z,36.75
2018-09-03T12:39:44.790Z,35.11
2018-09-03T12:40:54.659Z,34.24
2018-09-03T12:42:04.581Z,35.71
2018-09-03T12:43:14.179Z,35.55
2018-09-03T12:44:24.334Z,33.61
2018-09-03T12:45:34.201Z,31.35
2018-09-03T12:46:43.801Z,30.94
2018-09-03T12:47:53.683Z,31.11
2018-09-03T12:49:03.903Z,35.25
2018-09-03T12:50:14.158Z,34.7
2018-09-03T12:51:24.635Z,31.98
2018-09-03T12:52:34.506Z,34.06
2018-09-03T12:53:44.151Z,35.16
2018-09-03T12:54:53.473Z,35.33
2018-09-03T12:56:03.620Z,38.21
2018-09-03T12:57:13.222Z,38.95
2018-09-03T12:58:23.378Z,36.45
2018-09-03T12:59:33.541Z,36.39
2018-09-03T13:00:43.743Z,36.6
2018-09-03T13:01:53.799Z,35.46
2018-09-03T13:03:04.137Z,34.5
2018-09-03T13:04:14.050Z,34.14
2018-09-03T13:05:24.443Z,33
2018-09-03T13:06:34.601Z,32.14
2018-09-03T13:07:44.482Z,31.09
2018-09-03T13:08:54.364Z,30.32
2018-09-03T13:10:04.239Z,30.91
2018-09-03T13:11:14.211Z,30.71
2018-09-03T13:12:24.084Z,31.12
2018-09-03T13:13:34.296Z,29.47
2018-09-03T13:14:44.189Z,30.05
2018-09-03T13:15:53.520Z,29.87
2018-09-03T13:17:03.718Z,29.79
2018-09-03T13:18:13.656Z,29.9
2018-09-03T13:19:23.521Z,27.26
2018-09-03T13:20:33.400Z,28.22
2018-09-03T13:21:43.548Z,30.04
2018-09-03T13:22:53.471Z,28.69
2018-09-03T13:24:03.351Z,27.98
2018-09-03T13:25:13.229Z,29.25
2018-09-03T13:26:23.381Z,28.79
2018-09-03T13:27:33.527Z,29.38
2018-09-03T13:28:43.507Z,28.61
2018-09-03T13:29:53.387Z,25.57
2018-09-03T13:31:03.541Z,27.72
2018-09-03T13:32:13.413Z,27.64
2018-09-03T13:33:23.009Z,26.67
2018-09-03T13:34:32.900Z,27.17
2018-09-03T13:35:43.047Z,26.1
2018-09-03T13:36:53.195Z,26.2
2018-09-03T13:38:03.353Z,27.27
2018-09-03T13:39:13.229Z,25.92
2018-09-03T13:40:23.431Z,25.74
2018-09-03T13:41:33.651Z,25.65
2018-09-03T13:42:43.829Z,24.58
2018-09-03T13:43:53.835Z,24.98
2018-09-03T13:45:03.736Z,24.32
2018-09-03T13:46:13.890Z,24.51
2018-09-03T13:47:23.765Z,23.33
2018-09-03T13:48:33.912Z,23.33
2018-09-03T13:49:43.801Z,21.95
2018-09-03T13:50:53.681Z,22.84
2018-09-03T13:52:03.608Z,22.04
2018-09-03T13:53:13.213Z,21.73
2018-09-03T13:54:23.379Z,22.44
2018-09-03T13:55:33.529Z,22.44
2018-09-03T13:56:43.489Z,22.14
2018-09-03T13:57:53.592Z,21.93
2018-09-03T13:59:03.743Z,21.44
2018-09-03T14:00:13.347Z,21.61
2018-09-03T14:01:22.950Z,21.79
2018-09-03T14:02:32.838Z,22.56
2018-09-03T14:03:42.441Z,22.83
2018-09-03T14:04:52.711Z,23.69
2018-09-03T14:06:02.870Z,23.49
2018-09-03T14:07:13.029Z,25.03
2018-09-03T14:08:23.181Z,24.33
2018-09-03T14:09:33.452Z,24.62
2018-09-03T14:10:43.761Z,24.91
2018-09-03T14:11:53.628Z,25.33
2018-09-03T14:13:03.342Z,24.36
2018-09-03T14:14:13.528Z,24.06
2018-09-03T14:15:23.769Z,23.29
2018-09-03T14:16:33.930Z,22.71
2018-09-03T14:17:44.094Z,23
2018-09-03T14:18:53.687Z,22.62
2018-09-03T14:20:03.591Z,22.14
2018-09-03T14:21:14.107Z,21.75
2018-09-03T14:22:23.933Z,22.73
2018-09-03T14:23:33.845Z,22.74
2018-09-03T14:24:43.995Z,22.34
2018-09-03T14:25:53.592Z,21.66
2018-09-03T14:27:03.844Z,22.14
2018-09-03T14:28:13.755Z,21.95
2018-09-03T14:29:23.965Z,22.35
2018-09-03T14:30:34.122Z,22.17
2018-09-03T14:31:44.005Z,20.89
2018-09-03T14:32:54.163Z,21.68
2018-09-03T14:34:04.049Z,21.88
2018-09-03T14:35:13.926Z,21.77
2018-09-03T14:36:23.814Z,21.97
2018-09-03T14:37:33.685Z,22.63
2018-09-03T14:38:43.880Z,23.82
2018-09-03T14:39:54.031Z,23.33
2018-09-03T14:41:03.915Z,22.66
2018-09-03T14:42:13.786Z,22.56
2018-09-03T14:43:23.930Z,22.06
2018-09-03T14:44:34.131Z,22.08
2018-09-03T14:45:44.001Z,22.86
2018-09-03T14:46:54.144Z,22.97
2018-09-03T14:48:04.022Z,21.6
2018-09-03T14:49:13.890Z,21.5
2018-09-03T14:50:23.832Z,21.61
2018-09-03T14:51:33.981Z,21.02
2018-09-03T14:52:44.138Z,21.12
2018-09-03T14:53:54.004Z,20.33
2018-09-03T14:55:03.880Z,20.53
2018-09-03T14:56:14.230Z,21.11
2018-09-03T14:57:24.779Z,21.31
2018-09-03T14:58:34.924Z,21.31
2018-09-03T14:59:44.522Z,21.31
2018-09-03T15:00:54.116Z,21.12
2018-09-03T15:02:04.104Z,21.12
2018-09-03T15:03:14.495Z,20.83